Time;durP1;ratioP1;P1;durP2;ratioP2;P2;SDS_P1;SDS_P2;PMS_P1;PMS_P2;Temp;Humidity;BMP_temperature;BMP_pressure;BME280_temperature;BME280_humidity;BME280_pressure;Samples;Min_cycle;Max_cycle;Signal;HPM_P1;HPM_P2
2022/05/19 00:04:55;;;;;;;71.88;51.40;;;;;;;15.76;100.00;101863.56;10455514;28;20037;-73
2022/05/19 00:09:56;;;;;;;70.13;51.95;;;;;;;15.65;100.00;101859.00;10457080;28;20033;-72
2022/05/19 00:14:57;;;;;;;75.82;52.20;;;;;;;15.61;100.00;101860.63;10498498;28;20047;-72
2022/05/19 00:19:58;;;;;;;73.97;53.38;;;;;;;15.59;100.00;101841.47;10455547;28;20044;-72
2022/05/19 00:24:58;;;;;;;76.57;54.85;;;;;;;15.53;100.00;101854.44;10454746;28;20044;-72
2022/05/19 00:29:59;;;;;;;76.00;57.45;;;;;;;15.52;100.00;101847.25;10454753;28;20045;-72
2022/05/19 00:35:00;;;;;;;81.68;59.67;;;;;;;15.50;100.00;101855.00;10456988;28;20049;-73
2022/05/19 00:40:00;;;;;;;81.10;60.63;;;;;;;15.53;100.00;101862.78;10454291;28;20071;-72
2022/05/19 00:45:01;;;;;;;90.82;62.40;;;;;;;15.60;100.00;101843.13;10456789;28;20080;-69
2022/05/19 00:50:02;;;;;;;87.18;62.50;;;;;;;15.69;100.00;101860.16;10457728;28;20045;-72
2022/05/19 00:55:24;;;;;;;78.30;59.00;;;;;;;15.79;100.00;101851.91;10465019;28;20040;-72
2022/05/19 01:00:25;;;;;;;76.82;57.55;;;;;;;15.84;100.00;101842.81;10464607;28;20095;-72
2022/05/19 01:05:27;;;;;;;84.07;61.67;;;;;;;15.81;100.00;101838.59;10462679;28;20056;-73
2022/05/19 01:10:27;;;;;;;84.03;59.83;;;;;;;15.76;100.00;101835.78;10490278;28;20086;-73
2022/05/19 01:15:28;;;;;;;84.00;61.20;;;;;;;15.78;100.00;101825.25;10477562;28;20067;-72
2022/05/19 01:20:28;;;;;;;87.40;61.63;;;;;;;15.66;100.00;101813.47;10477797;28;20540;-72
2022/05/19 01:25:51;;;;;;;83.00;62.42;;;;;;;15.65;100.00;101825.69;10478318;28;20065;-72
2022/05/19 01:30:51;;;;;;;82.05;60.30;;;;;;;15.59;100.00;101824.81;10462040;28;20037;-72
2022/05/19 01:35:51;;;;;;;85.43;61.40;;;;;;;15.53;100.00;101828.63;10461471;28;20029;-72
2022/05/19 01:40:55;;;;;;;91.00;62.08;;;;;;;15.45;100.00;101810.53;10463426;28;20059;-72
2022/05/19 01:46:02;;;;;;;92.15;64.07;;;;;;;15.43;100.00;101812.72;10463294;28;20493;-72
2022/05/19 01:51:14;;;;;;;93.82;66.38;;;;;;;15.36;100.00;101809.34;10461204;28;20087;-73
2022/05/19 01:56:26;;;;;;;93.25;64.43;;;;;;;15.29;100.00;101794.84;10472797;28;20090;-72
2022/05/19 02:01:27;;;;;;;101.75;63.75;;;;;;;15.20;100.00;101804.75;10502896;28;20044;-72
2022/05/19 02:06:32;;;;;;;95.90;61.42;;;;;;;15.17;100.00;101789.44;10484959;28;20036;-72
2022/05/19 02:11:40;;;;;;;91.63;62.72;;;;;;;15.13;100.00;101786.38;10504183;28;20028;-73
2022/05/19 02:16:40;;;;;;;91.93;59.25;;;;;;;15.05;100.00;101789.63;10503367;28;20048;-72
2022/05/19 02:21:41;;;;;;;86.03;60.08;;;;;;;14.94;100.00;101782.31;10465391;28;20033;-72
2022/05/19 02:26:41;;;;;;;89.35;60.90;;;;;;;14.88;100.00;101775.03;10459235;28;20350;-72
2022/05/19 02:31:45;;;;;;;91.20;64.03;;;;;;;14.84;100.00;101763.66;10460550;28;20085;-71
2022/05/19 02:36:47;;;;;;;92.57;69.38;;;;;;;14.85;100.00;101758.94;10459908;28;20036;-73
2022/05/19 02:41:50;;;;;;;102.53;69.40;;;;;;;14.86;100.00;101760.59;10461090;28;20037;-72
2022/05/19 02:46:50;;;;;;;103.85;70.57;;;;;;;14.84;100.00;101754.47;10460487;28;20044;-72
2022/05/19 02:51:51;;;;;;;108.90;72.50;;;;;;;14.81;100.00;101755.00;10457938;28;20044;-73
2022/05/19 02:56:51;;;;;;;109.18;72.03;;;;;;;14.76;100.00;101750.25;10459438;28;20036;-71
2022/05/19 03:01:52;;;;;;;98.25;70.78;;;;;;;14.77;100.00;101748.31;10459957;28;20033;-72
2022/05/19 03:06:52;;;;;;;111.65;75.65;;;;;;;14.66;100.00;101739.88;10458773;28;20036;-72
2022/05/19 03:11:52;;;;;;;107.38;74.18;;;;;;;14.69;100.00;101739.34;10459915;28;20664;-72
2022/05/19 03:16:53;;;;;;;106.88;75.47;;;;;;;14.63;100.00;101715.44;10458212;28;20366;-72
2022/05/19 03:21:53;;;;;;;110.15;74.22;;;;;;;14.70;100.00;101729.94;10456415;28;20519;-73
2022/05/19 03:26:54;;;;;;;103.00;75.93;;;;;;;14.75;100.00;101720.84;10458331;28;20048;-71
2022/05/19 03:31:54;;;;;;;108.93;74.28;;;;;;;14.78;100.00;101708.38;10457322;28;20069;-71
2022/05/19 03:36:55;;;;;;;111.85;76.40;;;;;;;14.81;100.00;101705.09;10459391;28;20037;-71
2022/05/19 03:41:55;;;;;;;107.57;77.40;;;;;;;14.85;100.00;101714.56;10458352;28;20547;-72
2022/05/19 03:46:56;;;;;;;115.90;80.75;;;;;;;14.88;100.00;101714.03;10462163;28;20059;-73
2022/05/19 03:51:56;;;;;;;112.85;77.47;;;;;;;14.88;100.00;101714.03;10494665;28;20069;-73
2022/05/19 03:56:57;;;;;;;112.03;76.85;;;;;;;14.96;100.00;101710.78;10443790;28;20542;-74
2022/05/19 04:01:57;;;;;;;117.40;76.15;;;;;;;14.99;100.00;101712.22;10456836;28;20041;-73
2022/05/19 04:06:58;;;;;;;112.68;78.55;;;;;;;15.06;100.00;101719.19;10439692;28;20389;-73
2022/05/19 04:11:58;;;;;;;107.68;76.63;;;;;;;15.09;100.00;101726.16;10457704;28;20469;-71
2022/05/19 04:16:59;;;;;;;105.88;73.13;;;;;;;15.09;100.00;101715.91;10455767;28;20072;-74
2022/05/19 04:21:59;;;;;;;107.88;78.68;;;;;;;15.15;100.00;101725.09;10459484;28;20450;-72
2022/05/19 04:27:02;;;;;;;103.55;73.97;;;;;;;15.24;100.00;101722.69;10497082;28;20427;-73
2022/05/19 04:32:02;;;;;;;105.85;77.88;;;;;;;15.26;100.00;101732.41;10467925;28;20071;-72
2022/05/19 04:37:03;;;;;;;108.97;75.28;;;;;;;15.25;100.00;101730.72;10456950;28;20039;-72
2022/05/19 04:42:07;;;;;;;104.93;73.30;;;;;;;15.26;100.00;101723.25;10456475;28;20067;-72
2022/05/19 04:47:08;;;;;;;109.20;74.43;;;;;;;15.30;100.00;101707.75;10457168;28;20029;-72
2022/05/19 04:52:08;;;;;;;101.38;71.82;;;;;;;15.41;100.00;101709.50;10460316;28;20033;-72
2022/05/19 04:57:10;;;;;;;106.10;76.18;;;;;;;15.58;100.00;101701.00;10495616;28;20055;-72
2022/05/19 05:02:11;;;;;;;96.95;70.55;;;;;;;15.78;100.00;101691.16;10478879;28;20037;-71
2022/05/19 05:07:11;;;;;;;94.10;68.80;;;;;;;16.05;100.00;101682.69;10436681;28;20029;-72
2022/05/19 05:12:12;;;;;;;88.20;66.22;;;;;;;16.40;100.00;101689.47;10495891;28;20060;-72
2022/05/19 05:17:14;;;;;;;79.55;62.28;;;;;;;16.60;100.00;101706.19;10495914;28;20048;-73
2022/05/19 05:22:15;;;;;;;77.57;58.92;;;;;;;16.84;100.00;101702.91;10494885;28;20515;-73
2022/05/19 05:27:15;;;;;;;82.60;58.45;;;;;;;16.89;100.00;101709.34;10476774;28;20086;-72
2022/05/19 05:32:16;;;;;;;80.25;56.20;;;;;;;16.93;100.00;101715.19;10497082;28;20033;-70
2022/05/19 05:37:16;;;;;;;77.22;57.72;;;;;;;16.89;100.00;101722.41;10499239;28;20043;-71
2022/05/19 05:42:17;;;;;;;82.70;58.55;;;;;;;16.99;100.00;101752.16;10504136;28;20065;-71
2022/05/19 05:47:17;;;;;;;70.25;55.90;;;;;;;17.19;100.00;101741.06;10504318;28;20032;-71
2022/05/19 05:52:18;;;;;;;73.05;56.45;;;;;;;17.37;100.00;101752.75;10488191;28;20045;-72
2022/05/19 05:57:18;;;;;;;67.50;51.78;;;;;;;17.49;100.00;101745.78;10460381;28;20071;-72
2022/05/19 06:02:19;;;;;;;61.05;48.10;;;;;;;17.57;100.00;101757.44;10463138;28;20048;-71
2022/05/19 06:07:19;;;;;;;58.75;43.00;;;;;;;17.68;100.00;101759.97;10462687;28;20029;-72
2022/05/19 06:12:20;;;;;;;51.80;38.63;;;;;;;18.17;100.00;101766.84;10462401;28;20036;-71
2022/05/19 06:17:20;;;;;;;47.47;34.67;;;;;;;18.68;100.00;101763.81;10461957;28;20044;-73
2022/05/19 06:22:24;;;;;;;33.88;28.00;;;;;;;19.11;100.00;101758.53;10461037;28;20503;-72
2022/05/19 06:27:24;;;;;;;40.22;26.80;;;;;;;19.13;100.00;101777.78;10459146;28;20037;-71
2022/05/19 06:32:25;;;;;;;30.60;23.63;;;;;;;19.13;100.00;101767.44;10460086;28;20040;-71
2022/05/19 06:37:25;;;;;;;30.27;24.90;;;;;;;19.38;100.00;101771.16;10460979;28;20056;-72
2022/05/19 06:42:26;;;;;;;35.80;24.70;;;;;;;19.36;100.00;101781.78;10442206;28;20059;-72
2022/05/19 06:47:26;;;;;;;29.20;22.48;;;;;;;19.39;100.00;101767.25;10458085;28;20120;-72
2022/05/19 06:52:28;;;;;;;25.48;20.67;;;;;;;19.72;100.00;101759.16;10458002;28;20033;-72
2022/05/19 06:57:30;;;;;;;28.27;20.60;;;;;;;20.34;100.00;101757.34;10479041;28;20046;-73
2022/05/19 07:02:30;;;;;;;24.45;18.48;;;;;;;20.58;100.00;101739.72;10499304;28;20045;-73
2022/05/19 07:07:31;;;;;;;22.95;18.02;;;;;;;20.92;100.00;101722.69;10501737;28;20029;-76
2022/05/19 07:12:31;;;;;;;22.55;17.58;;;;;;;21.05;100.00;101732.28;10501766;28;20041;-77
2022/05/19 07:17:32;;;;;;;23.83;17.42;;;;;;;21.66;100.00;101723.97;10500466;28;20040;-76
2022/05/19 07:22:33;;;;;;;21.63;16.08;;;;;;;22.01;100.00;101713.22;10499219;28;20040;-77
2022/05/19 07:27:36;;;;;;;20.95;15.50;;;;;;;22.13;100.00;101761.19;10471709;28;20056;-77
2022/05/19 07:32:37;;;;;;;19.80;15.40;;;;;;;21.89;100.00;101751.03;10438238;28;20436;-77
2022/05/19 07:37:38;;;;;;;19.60;17.08;;;;;;;21.62;100.00;101750.97;10463043;28;20092;-78
2022/05/19 07:42:39;;;;;;;19.70;16.65;;;;;;;21.48;100.00;101754.56;10497967;28;20044;-77
2022/05/19 07:47:40;;;;;;;21.40;16.05;;;;;;;21.63;100.00;101766.66;10471627;28;20047;-77
2022/05/19 07:52:41;;;;;;;23.50;18.50;;;;;;;21.77;100.00;101753.50;10497824;28;20908;-78
2022/05/19 07:57:41;;;;;;;22.73;18.80;;;;;;;21.91;100.00;101762.75;10497683;28;20047;-77
2022/05/19 08:02:42;;;;;;;21.35;16.35;;;;;;;21.83;100.00;101779.44;10496308;28;20307;-78
2022/05/19 08:07:42;;;;;;;21.10;16.60;;;;;;;21.69;100.00;101796.25;10459478;28;20029;-78
2022/05/19 08:18:04;;;;;;;22.88;16.58;;;;;;;20.77;100.00;101818.06;10477727;28;20567;-76
2022/05/19 08:23:04;;;;;;;22.55;16.80;;;;;;;20.39;100.00;101814.34;10479065;28;20377;-77
2022/05/19 08:28:05;;;;;;;26.35;19.35;;;;;;;19.99;100.00;101766.13;10468772;28;20048;-85
2022/05/19 08:33:06;;;;;;;28.10;21.20;;;;;;;19.66;100.00;101819.00;10496656;28;20037;-79
2022/05/19 08:38:06;;;;;;;28.45;23.33;;;;;;;19.54;100.00;101811.81;10496006;28;20032;-79
2022/05/19 08:43:07;;;;;;;24.95;21.88;;;;;;;19.48;100.00;101768.28;10512516;28;20041;-80
2022/05/19 08:48:11;;;;;;;31.17;24.70;;;;;;;19.61;100.00;101760.34;10468030;28;20041;-81
2022/05/19 08:53:12;;;;;;;28.85;23.02;;;;;;;19.77;100.00;101741.53;10475010;28;20037;-80
2022/05/19 08:58:33;;;;;;;29.65;23.55;;;;;;;19.87;100.00;101719.88;10495314;28;20086;-80
2022/05/19 09:03:37;;;;;;;31.08;26.10;;;;;;;19.86;100.00;101712.63;10492949;28;20040;-80
2022/05/19 09:09:12;;;;;;;33.17;27.42;;;;;;;19.73;100.00;101727.31;10494086;28;20057;-82
2022/05/19 09:14:20;;;;;;;32.53;26.05;;;;;;;19.81;100.00;101723.88;10499428;28;20036;-78
2022/05/19 09:19:25;;;;;;;30.17;25.50;;;;;;;20.24;100.00;101740.69;10503152;28;20036;-75
2022/05/19 09:24:25;;;;;;;30.35;26.67;;;;;;;20.79;100.00;101750.63;10504148;28;20448;-79
2022/05/19 09:29:56;;;;;;;34.88;27.60;;;;;;;20.92;100.00;101745.09;10520535;28;20059;-78
2022/05/19 09:35:10;;;;;;;36.97;28.75;;;;;;;21.25;100.00;101747.09;10499049;28;20041;-77
2022/05/19 09:40:10;;;;;;;34.35;29.98;;;;;;;21.33;100.00;101749.19;10481596;28;20047;-77
2022/05/19 09:45:11;;;;;;;37.90;27.30;;;;;;;21.60;100.00;101747.63;10498701;28;20551;-77
2022/05/19 09:50:16;;;;;;;35.10;27.63;;;;;;;21.77;100.00;101759.94;10485374;28;20032;-77
2022/05/19 09:55:20;;;;;;;32.15;26.88;;;;;;;21.89;100.00;101762.22;10502679;28;20060;-77
2022/05/19 10:00:43;;;;;;;33.13;25.70;;;;;;;22.21;100.00;101779.28;10482901;28;20033;-78
2022/05/19 10:05:49;;;;;;;32.60;25.83;;;;;;;22.30;100.00;101764.25;10459519;28;20048;-71
2022/05/19 10:11:01;;;;;;;31.17;25.70;;;;;;;22.71;100.00;101754.91;10460973;28;20117;-78
2022/05/19 10:16:45;;;;;;;29.63;23.10;;;;;;;22.83;100.00;101754.38;10460665;28;20507;-80
2022/05/19 10:22:04;;;;;;;27.65;20.85;;;;;;;23.43;100.00;101736.38;10476751;28;20033;-69
2022/05/19 10:32:48;;;;;;;23.50;19.38;;;;;;;23.50;100.00;101707.78;10497900;28;20056;-73
2022/05/19 10:38:07;;;;;;;21.17;18.17;;;;;;;23.32;100.00;101709.69;10498149;28;20032;-74
2022/05/19 10:43:16;;;;;;;21.13;18.92;;;;;;;23.18;100.00;101706.94;10501938;28;20048;-75
2022/05/19 10:48:57;;;;;;;26.08;22.13;;;;;;;22.81;100.00;101696.91;10501759;28;20063;-74
2022/05/19 10:54:22;;;;;;;24.27;21.65;;;;;;;22.41;100.00;101677.88;10501362;28;20063;-73
2022/05/19 10:59:42;;;;;;;25.02;22.23;;;;;;;22.39;100.00;101663.34;10501206;28;20400;-74
2022/05/19 11:05:02;;;;;;;23.05;19.60;;;;;;;23.04;100.00;101655.63;10454239;28;20400;-74
2022/05/19 11:10:32;;;;;;;22.50;18.88;;;;;;;24.44;100.00;101624.06;10458153;28;20044;-74
2022/05/19 11:16:04;;;;;;;23.40;20.13;;;;;;;25.15;100.00;101620.03;10459916;28;20041;-73
2022/05/19 11:21:16;;;;;;;21.35;17.83;;;;;;;25.66;100.00;101612.56;10488587;28;20087;-74
2022/05/19 11:26:24;;;;;;;24.95;18.40;;;;;;;25.75;100.00;101598.41;10495215;28;20032;-74
2022/05/19 11:31:44;;;;;;;21.60;19.10;;;;;;;26.13;100.00;101587.09;10495202;28;20044;-75
2022/05/19 11:36:58;;;;;;;21.63;18.60;;;;;;;26.56;100.00;101560.50;10495811;28;20078;-74
2022/05/19 11:42:18;;;;;;;23.05;20.38;;;;;;;26.66;100.00;101547.94;10475784;28;20047;-74
2022/05/19 11:58:39;;;;;;;19.65;16.85;;;;;;;27.58;94.13;101602.44;10454300;28;20048;-74
2022/05/19 12:03:50;;;;;;;19.15;14.75;;;;;;;28.10;88.27;101598.06;10495617;28;20033;-73
2022/05/19 12:09:20;;;;;;;14.75;11.18;;;;;;;29.03;78.13;101580.94;10481543;28;20043;-73
2022/05/19 12:14:27;;;;;;;13.60;11.48;;;;;;;29.28;76.25;101573.13;10489210;28;20036;-74
2022/05/19 12:19:51;;;;;;;11.15;10.00;;;;;;;28.83;77.67;101573.50;10481557;28;20060;-73
2022/05/19 12:24:54;;;;;;;11.23;8.82;;;;;;;28.63;73.67;101562.03;10454432;28;20045;-73
2022/05/19 12:35:48;;;;;;;12.43;6.55;;;;;;;28.22;73.17;101549.09;10431671;28;20048;-74
2022/05/19 12:40:56;;;;;;;9.32;6.70;;;;;;;27.84;75.30;101545.47;10438498;28;20079;-75
2022/05/19 12:46:00;;;;;;;8.80;5.60;;;;;;;27.40;73.09;101541.63;10438563;28;20052;-76
2022/05/19 12:51:13;;;;;;;7.53;5.20;;;;;;;27.10;74.95;101558.75;10438361;28;20037;-76
2022/05/19 12:56:43;;;;;;;11.60;5.55;;;;;;;26.46;77.44;101583.50;10456048;28;20051;-81
2022/05/19 13:01:57;;;;;;;7.82;4.47;;;;;;;25.93;79.87;101594.34;10455157;28;20063;-79
2022/05/19 13:07:00;;;;;;;26.02;4.93;;;;;;;25.38;77.23;101575.53;10455088;28;20051;-83
2022/05/19 13:12:04;;;;;;;14.65;4.18;;;;;;;24.92;82.33;101571.53;10476155;28;20090;-81
2022/05/19 13:17:08;;;;;;;6.13;3.55;;;;;;;24.48;86.60;101570.75;10479768;28;20123;-83
2022/05/19 13:22:18;;;;;;;8.55;3.53;;;;;;;24.17;91.05;101600.72;10459849;28;20044;-83
2022/05/19 13:33:07;;;;;;;9.43;5.78;;;;;;;23.29;100.00;101651.31;10492394;28;20040;-84
2022/05/19 13:38:18;;;;;;;11.63;8.20;;;;;;;22.62;100.00;101697.06;10492726;28;20089;-81
2022/05/19 13:43:21;;;;;;;27.58;14.35;;;;;;;21.83;100.00;101746.66;10493803;28;20032;-76
2022/05/19 13:48:24;;;;;;;25.02;18.33;;;;;;;20.64;100.00;101802.84;10491470;28;20134;-76
2022/05/19 13:53:25;;;;;;;26.15;16.75;;;;;;;19.39;100.00;101841.81;10496214;28;20540;-74
2022/05/19 13:58:25;;;;;;;43.75;12.02;;;;;;;18.47;100.00;101871.00;10469656;28;20028;-78
2022/05/19 14:03:26;;;;;;;10.00;4.28;;;;;;;17.42;100.00;101884.41;10501640;28;20068;-77
2022/05/19 14:08:26;;;;;;;11.70;5.40;;;;;;;17.02;100.00;101897.13;10475559;28;20036;-78
2022/05/19 14:13:27;;;;;;;9.00;5.68;;;;;;;16.82;100.00;101910.94;10477930;28;20048;-76
2022/05/19 14:18:37;;;;;;;13.70;7.82;;;;;;;16.67;100.00;101890.25;10492115;28;20431;-76
2022/05/19 14:24:03;;;;;;;17.55;10.10;;;;;;;16.81;100.00;101881.47;10501081;28;20552;-75
2022/05/19 14:29:04;;;;;;;16.77;11.45;;;;;;;16.88;100.00;101787.47;10500245;28;20044;-76
2022/05/19 14:34:04;;;;;;;30.05;14.82;;;;;;;17.05;100.00;101729.66;10460915;28;20032;-74
2022/05/19 14:39:51;;;;;;;88.72;22.08;;;;;;;17.18;100.00;101688.44;10501186;28;20041;-75
2022/05/19 14:44:54;;;;;;;25.83;19.30;;;;;;;17.10;100.00;101635.06;10495248;28;20535;-74
2022/05/19 14:50:02;;;;;;;31.48;20.20;;;;;;;17.20;100.00;101599.97;10500184;28;20117;-74
2022/05/19 14:55:06;;;;;;;29.40;20.08;;;;;;;17.18;100.00;101613.31;10501306;28;20041;-74
2022/05/19 15:00:07;;;;;;;66.20;24.55;;;;;;;17.11;100.00;101610.84;10498266;28;20047;-76
2022/05/19 15:05:08;;;;;;;51.47;25.50;;;;;;;17.23;100.00;101602.19;10493233;28;20163;-75
2022/05/19 15:10:09;;;;;;;37.50;24.20;;;;;;;17.22;100.00;101617.22;10499505;28;20458;-75
2022/05/19 15:15:10;;;;;;;34.72;25.35;;;;;;;17.22;100.00;101614.44;10507318;28;20078;-76
2022/05/19 15:20:10;;;;;;;42.42;27.48;;;;;;;17.20;100.00;101597.19;10500887;28;20037;-76
2022/05/19 15:25:11;;;;;;;51.08;29.27;;;;;;;17.21;100.00;101584.94;10481572;28;20051;-75
2022/05/19 15:30:15;;;;;;;33.92;27.52;;;;;;;17.63;100.00;101608.75;10499186;28;20423;-75
2022/05/19 15:35:17;;;;;;;34.10;24.25;;;;;;;17.87;100.00;101611.75;10498301;28;20071;-74
2022/05/19 15:40:19;;;;;;;38.90;25.02;;;;;;;18.15;100.00;101604.66;10466975;28;20041;-73
2022/05/19 15:45:20;;;;;;;24.73;21.40;;;;;;;18.79;100.00;101627.09;10472882;28;20037;-73
2022/05/19 15:50:33;;;;;;;19.52;15.10;;;;;;;20.26;100.00;101632.19;10479218;28;20473;-72
2022/05/19 15:55:34;;;;;;;12.20;7.32;;;;;;;20.99;100.00;101613.13;10504289;28;20466;-72
2022/05/19 16:00:35;;;;;;;8.25;6.38;;;;;;;20.83;100.00;101603.34;10493723;28;20049;-73
2022/05/19 16:05:35;;;;;;;9.88;5.57;;;;;;;20.66;100.00;101596.34;10496171;28;20041;-72
2022/05/19 16:10:36;;;;;;;6.75;4.90;;;;;;;20.83;100.00;101595.78;10497984;28;20040;-73
2022/05/19 16:15:38;;;;;;;7.07;4.45;;;;;;;21.34;100.00;101585.63;10480074;28;20044;-74
2022/05/19 16:20:38;;;;;;;6.35;5.10;;;;;;;21.62;100.00;101594.03;10497007;28;20056;-74
2022/05/19 16:25:39;;;;;;;7.50;4.10;;;;;;;21.58;100.00;101584.59;10496422;28;20036;-73
2022/05/19 16:30:39;;;;;;;6.75;4.63;;;;;;;21.59;100.00;101603.09;10482566;28;20512;-74
2022/05/19 16:35:40;;;;;;;7.25;4.72;;;;;;;21.45;100.00;101606.69;10455737;28;20496;-74
2022/05/19 16:40:40;;;;;;;7.05;4.45;;;;;;;21.16;100.00;101626.53;10455303;28;20056;-73
2022/05/19 16:45:41;;;;;;;8.00;4.20;;;;;;;21.17;100.00;101645.84;10457647;28;20033;-73
2022/05/19 16:50:41;;;;;;;5.05;3.83;;;;;;;21.44;100.00;101654.66;10457303;28;20033;-69
2022/05/19 17:01:01;;;;;;;5.10;3.78;;;;;;;20.96;100.00;101672.56;10454732;28;20065;-74
2022/05/19 17:06:03;;;;;;;5.32;4.00;;;;;;;20.80;100.00;101685.94;10453814;28;20036;-73
2022/05/19 17:11:04;;;;;;;5.22;4.35;;;;;;;20.66;100.00;101690.66;10438700;28;20060;-74
2022/05/19 17:16:04;;;;;;;6.32;5.20;;;;;;;20.60;100.00;101691.84;10456237;28;20029;-75
2022/05/19 17:21:05;;;;;;;7.18;5.55;;;;;;;20.41;100.00;101708.59;10454083;28;20041;-74
2022/05/19 17:26:06;;;;;;;6.20;4.57;;;;;;;20.43;100.00;101714.72;10465772;28;20098;-74
2022/05/19 17:31:06;;;;;;;7.00;4.35;;;;;;;20.45;100.00;101720.84;10453429;28;20045;-74
2022/05/19 17:36:07;;;;;;;5.00;4.00;;;;;;;20.44;100.00;101733.97;10460092;28;20029;-74
2022/05/19 17:41:10;;;;;;;5.18;3.53;;;;;;;20.23;100.00;101727.00;10495723;28;20049;-76
2022/05/19 17:46:11;;;;;;;7.05;4.25;;;;;;;20.02;100.00;101732.03;10464275;28;20064;-74
2022/05/19 17:51:11;;;;;;;4.03;3.50;;;;;;;19.98;100.00;101736.53;10459869;28;20480;-75
2022/05/19 17:56:13;;;;;;;4.15;2.80;;;;;;;19.59;100.00;101729.91;10462829;28;20037;-74
2022/05/19 18:01:14;;;;;;;4.68;2.25;;;;;;;19.38;100.00;101740.44;10453325;28;20048;-75
2022/05/19 18:06:14;;;;;;;4.03;3.03;;;;;;;19.17;100.00;101730.59;10460704;28;20029;-75
2022/05/19 18:11:15;;;;;;;3.47;2.90;;;;;;;19.00;100.00;101737.44;10463038;28;20044;-74
2022/05/19 18:21:35;;;;;;;5.32;3.65;;;;;;;18.57;100.00;101739.06;10459698;28;20044;-74
2022/05/19 18:26:37;;;;;;;4.03;3.63;;;;;;;18.48;100.00;101741.59;10460090;28;20041;-77
2022/05/19 18:31:40;;;;;;;6.65;4.05;;;;;;;18.48;100.00;101767.56;10458775;28;20045;-76
2022/05/19 18:36:41;;;;;;;6.35;4.07;;;;;;;18.49;100.00;101785.09;10461910;28;20033;-77
2022/05/19 18:47:00;;;;;;;12.95;11.60;;;;;;;18.38;100.00;101800.22;10459761;28;20404;-79
2022/05/19 18:52:04;;;;;;;17.50;13.63;;;;;;;18.03;100.00;101807.56;10482294;28;20033;-75
2022/05/19 18:57:05;;;;;;;22.50;17.83;;;;;;;17.82;100.00;101827.06;10459755;28;20535;-78
2022/05/19 19:02:07;;;;;;;25.73;19.92;;;;;;;17.58;100.00;101826.78;10459510;28;20051;-75
2022/05/19 19:07:09;;;;;;;28.92;22.45;;;;;;;17.38;100.00;101835.97;10457821;28;20047;-76
2022/05/19 19:12:09;;;;;;;30.70;24.83;;;;;;;17.30;100.00;101842.06;10458001;28;20029;-76
2022/05/19 19:17:10;;;;;;;36.08;26.80;;;;;;;17.19;100.00;101846.78;10456726;28;20033;-76
2022/05/19 19:22:10;;;;;;;29.33;24.60;;;;;;;17.07;100.00;101855.38;10456226;28;20041;-77
2022/05/19 19:27:11;;;;;;;33.28;26.45;;;;;;;16.97;100.00;101844.25;10439622;28;20451;-76
2022/05/19 19:32:12;;;;;;;28.10;24.63;;;;;;;16.83;100.00;101848.66;10458525;28;20084;-75
2022/05/19 19:37:12;;;;;;;32.50;27.25;;;;;;;16.73;100.00;101844.69;10497356;28;20059;-76
2022/05/19 19:42:13;;;;;;;37.03;26.02;;;;;;;16.67;100.00;101854.13;10495997;28;20047;-80
2022/05/19 19:47:13;;;;;;;38.03;27.63;;;;;;;16.64;100.00;101879.69;10497049;28;20483;-77
2022/05/19 19:52:14;;;;;;;32.78;26.55;;;;;;;16.42;100.00;101849.28;10478579;28;20033;-76
2022/05/19 19:57:14;;;;;;;29.98;25.33;;;;;;;16.52;100.00;101887.41;10497078;28;20051;-75
2022/05/19 20:02:15;;;;;;;26.83;23.20;;;;;;;16.36;100.00;101889.25;10497352;28;20450;-77
2022/05/19 20:07:15;;;;;;;24.98;21.13;;;;;;;15.70;100.00;101829.31;10496537;28;20032;-76
2022/05/19 20:12:16;;;;;;;24.58;20.48;;;;;;;16.14;100.00;101886.59;10479115;28;20037;-78
2022/05/19 20:17:16;;;;;;;25.92;20.33;;;;;;;16.16;100.00;101895.50;10478226;28;20187;-76
2022/05/19 20:22:17;;;;;;;28.38;21.80;;;;;;;16.13;100.00;101899.66;10495789;28;20546;-78
2022/05/19 20:27:18;;;;;;;27.00;23.20;;;;;;;15.82;100.00;101879.16;10472843;28;20037;-78
2022/05/19 20:32:18;;;;;;;25.92;21.60;;;;;;;15.81;100.00;101896.91;10483013;28;20096;-77
2022/05/19 20:37:19;;;;;;;30.63;22.95;;;;;;;15.70;100.00;101906.22;10480338;28;20040;-77
2022/05/19 20:42:19;;;;;;;32.83;24.17;;;;;;;15.62;100.00;101907.53;10454428;28;20469;-75
2022/05/19 20:47:20;;;;;;;32.85;24.77;;;;;;;15.56;100.00;101908.59;10471881;28;20474;-77
2022/05/19 20:52:20;;;;;;;33.47;24.10;;;;;;;15.11;100.00;101891.22;10495657;28;20048;-76
2022/05/19 20:57:21;;;;;;;36.10;26.63;;;;;;;15.30;100.00;101921.38;10483244;28;20478;-76
2022/05/19 21:02:22;;;;;;;40.97;27.73;;;;;;;15.07;100.00;101928.06;10454935;28;20048;-76
2022/05/19 21:07:22;;;;;;;38.53;31.05;;;;;;;14.81;100.00;101896.38;10453390;28;20036;-75
2022/05/19 21:12:23;;;;;;;38.90;30.13;;;;;;;15.02;100.00;101947.38;10462233;28;20105;-78
2022/05/19 21:17:23;;;;;;;37.92;28.25;;;;;;;14.86;100.00;101949.97;10462558;28;20108;-75
2022/05/19 21:22:24;;;;;;;29.35;25.35;;;;;;;14.69;100.00;101957.47;10490131;28;20047;-77
2022/05/19 21:27:25;;;;;;;26.50;23.80;;;;;;;14.59;100.00;101972.03;10503082;28;20041;-74
2022/05/19 21:32:25;;;;;;;28.45;23.50;;;;;;;14.54;100.00;101996.88;10501133;28;20097;-76
2022/05/19 21:37:26;;;;;;;28.88;25.23;;;;;;;14.52;100.00;102004.59;10500295;28;20040;-74
2022/05/19 21:42:27;;;;;;;29.35;26.13;;;;;;;14.48;100.00;102006.19;10483433;28;20563;-75
2022/05/19 21:47:27;;;;;;;26.10;22.95;;;;;;;14.41;100.00;102002.78;10503458;28;20094;-76
2022/05/19 21:57:48;;;;;;;32.85;21.25;;;;;;;14.12;100.00;102025.84;10494071;28;20041;-74
2022/05/19 22:02:49;;;;;;;23.52;20.20;;;;;;;14.06;100.00;102031.53;10460081;28;20097;-72
2022/05/19 22:07:49;;;;;;;29.20;20.98;;;;;;;13.97;100.00;102025.53;10461806;28;20037;-76
2022/05/19 22:12:50;;;;;;;26.95;18.17;;;;;;;14.00;100.00;102040.84;10459936;28;20149;-75
2022/05/19 22:17:51;;;;;;;26.20;18.67;;;;;;;13.99;100.00;102053.00;10461541;28;20033;-75
2022/05/19 22:22:51;;;;;;;24.75;19.10;;;;;;;13.95;100.00;102060.09;10459783;28;20044;-76
2022/05/19 22:27:52;;;;;;;20.90;15.43;;;;;;;13.87;100.00;102062.22;10461756;28;20039;-74
2022/05/19 22:32:52;;;;;;;17.77;12.70;;;;;;;13.76;100.00;102046.47;10461268;28;20040;-74
2022/05/19 22:37:52;;;;;;;13.95;10.77;;;;;;;13.75;100.00;102044.81;10460998;28;20029;-76
2022/05/19 22:42:53;;;;;;;23.13;12.63;;;;;;;13.61;100.00;102057.25;10460339;28;20052;-75
2022/05/19 22:47:55;;;;;;;13.80;9.45;;;;;;;13.47;100.00;102054.75;10460455;28;20051;-75
2022/05/19 22:52:56;;;;;;;12.35;7.43;;;;;;;13.35;100.00;102058.63;10442425;28;20124;-74
2022/05/19 22:57:56;;;;;;;11.25;7.57;;;;;;;13.33;100.00;102047.81;10461297;28;20084;-75
2022/05/19 23:02:57;;;;;;;10.73;8.50;;;;;;;13.26;100.00;102041.56;10461620;28;20052;-73
2022/05/19 23:07:58;;;;;;;11.05;8.40;;;;;;;13.35;100.00;102067.78;10457793;28;20042;-75
2022/05/19 23:12:59;;;;;;;10.85;8.73;;;;;;;13.26;100.00;102070.03;10458096;28;20037;-75
2022/05/19 23:18:00;;;;;;;14.10;9.00;;;;;;;13.15;100.00;102072.81;10457869;28;20037;-76
2022/05/19 23:23:00;;;;;;;12.82;8.65;;;;;;;13.21;100.00;102083.78;10457003;28;20045;-76
2022/05/19 23:28:01;;;;;;;10.55;6.82;;;;;;;13.18;100.00;102097.22;10458139;28;20040;-76
2022/05/19 23:33:20;;;;;;;9.02;6.30;;;;;;;13.15;100.00;102095.81;10458656;28;20488;-75